Time;durP1;ratioP1;P1;durP2;ratioP2;P2;SDS_P1;SDS_P2;PMS_P1;PMS_P2;Temp;Humidity;BMP_temperature;BMP_pressure;BME280_temperature;BME280_humidity;BME280_pressure;Samples;Min_cycle;Max_cycle;Signal;HPM_P1;HPM_P2
2023/01/23 00:01:09;;;;;;;2.42;1.35;;;;;;;20.10;33.50;103672.38;5060209;28;20044;-68
2023/01/23 00:03:34;;;;;;;2.25;1.90;;;;;;;20.07;33.46;103667.31;5061106;28;20028;-68
2023/01/23 00:06:02;;;;;;;1.75;1.55;;;;;;;20.03;33.53;103672.00;5063340;28;20515;-68
2023/01/23 00:08:28;;;;;;;2.33;1.60;;;;;;;20.02;33.54;103661.53;5063469;28;20044;-68
2023/01/23 00:10:54;;;;;;;2.25;1.55;;;;;;;19.95;33.73;103663.78;5060543;28;20070;-68
2023/01/23 00:13:20;;;;;;;2.28;1.60;;;;;;;19.97;33.70;103672.44;5055527;28;20036;-68
2023/01/23 00:15:46;;;;;;;1.77;1.40;;;;;;;19.96;33.70;103670.75;5060156;28;20459;-68
2023/01/23 00:18:13;;;;;;;2.53;1.40;;;;;;;19.98;33.66;103671.50;5058873;28;20040;-68
2023/01/23 00:20:39;;;;;;;1.67;1.35;;;;;;;19.99;33.63;103667.03;5057586;28;20070;-68
2023/01/23 00:23:05;;;;;;;2.05;1.48;;;;;;;19.94;33.53;103661.25;5058572;28;20036;-68
2023/01/23 00:25:32;;;;;;;1.92;1.30;;;;;;;19.91;33.78;103667.59;5061598;28;20150;-68
2023/01/23 00:27:58;;;;;;;1.40;1.30;;;;;;;19.93;33.70;103671.00;5055479;28;20041;-68
2023/01/23 00:30:23;;;;;;;1.65;1.40;;;;;;;19.92;33.70;103667.47;5059932;28;20039;-68
2023/01/23 00:32:49;;;;;;;1.67;1.25;;;;;;;19.84;33.80;103671.66;5055358;28;20817;-68
2023/01/23 00:35:14;;;;;;;3.28;1.60;;;;;;;19.87;33.83;103666.13;5061950;28;20037;-68
2023/01/23 00:37:41;;;;;;;1.27;1.13;;;;;;;19.96;33.68;103672.56;5058441;28;20222;-68
2023/01/23 00:40:07;;;;;;;1.67;1.55;;;;;;;19.87;33.84;103666.97;5055188;28;20129;-68
2023/01/23 00:42:33;;;;;;;1.50;1.02;;;;;;;19.86;33.85;103664.44;5061662;28;20060;-68
2023/01/23 00:44:59;;;;;;;2.00;1.48;;;;;;;19.84;33.82;103655.78;5061197;28;20041;-68
2023/01/23 00:47:24;;;;;;;1.98;1.45;;;;;;;19.82;33.82;103653.25;5058453;28;20455;-68
2023/01/23 00:49:52;;;;;;;1.40;1.27;;;;;;;19.80;33.95;103660.47;5055927;28;20032;-68
2023/01/23 00:52:19;;;;;;;2.13;1.48;;;;;;;19.85;33.83;103655.66;5071030;28;20731;-68
2023/01/23 00:54:46;;;;;;;3.65;1.60;;;;;;;19.82;33.86;103658.53;5057502;28;21049;-68
2023/01/23 00:57:11;;;;;;;1.65;1.55;;;;;;;19.77;33.90;103651.91;5071842;28;20098;-68
2023/01/23 00:59:39;;;;;;;2.17;1.52;;;;;;;19.76;33.90;103653.72;5060912;28;20029;-68
2023/01/23 01:02:05;;;;;;;2.03;1.60;;;;;;;19.71;34.02;103654.97;5058959;28;20059;-67
2023/01/23 01:04:30;;;;;;;1.50;1.23;;;;;;;19.77;33.80;103660.69;5059592;28;20157;-68
2023/01/23 01:06:56;;;;;;;1.77;1.23;;;;;;;19.72;33.96;103654.84;5058399;28;20477;-68
2023/01/23 01:09:22;;;;;;;2.13;1.48;;;;;;;19.68;34.01;103665.78;5071012;28;20103;-68
2023/01/23 01:11:47;;;;;;;2.15;1.30;;;;;;;19.70;34.07;103670.00;5060569;28;20490;-68
2023/01/23 01:14:14;;;;;;;2.13;1.50;;;;;;;19.73;33.95;103653.06;5057839;28;20028;-68
2023/01/23 01:16:44;;;;;;;1.42;1.08;;;;;;;19.68;34.04;103653.41;5074125;28;20155;-68
2023/01/23 01:19:11;;;;;;;1.23;1.13;;;;;;;19.67;34.11;103657.00;5059051;28;20036;-68
2023/01/23 01:21:38;;;;;;;2.13;1.15;;;;;;;19.68;33.93;103663.97;5058904;28;21753;-68
2023/01/23 01:24:04;;;;;;;2.20;1.50;;;;;;;19.59;34.27;103654.91;5052126;28;20039;-68
2023/01/23 01:26:30;;;;;;;1.30;1.10;;;;;;;19.62;34.19;103661.78;5058796;28;20502;-68
2023/01/23 01:28:55;;;;;;;1.90;1.50;;;;;;;19.64;33.99;103659.03;5062610;28;20452;-68
2023/01/23 01:31:21;;;;;;;1.75;1.40;;;;;;;19.64;34.20;103664.31;5061351;28;20162;-68
2023/01/23 01:33:47;;;;;;;1.45;1.20;;;;;;;19.63;33.97;103657.34;5063518;28;20040;-68
2023/01/23 01:36:15;;;;;;;1.48;1.30;;;;;;;19.64;34.06;103651.09;5054941;28;20374;-68
2023/01/23 01:38:41;;;;;;;1.73;1.45;;;;;;;19.65;34.11;103660.72;5059791;28;20044;-68
2023/01/23 01:41:07;;;;;;;1.95;1.35;;;;;;;19.65;34.06;103653.63;5057648;28;20047;-68
2023/01/23 01:43:34;;;;;;;2.10;1.42;;;;;;;19.61;34.10;103660.94;5057833;28;20040;-68
2023/01/23 01:46:17;;;;;;;1.17;1.08;;;;;;;19.64;33.94;103649.28;5058183;28;20123;-68
2023/01/23 01:49:07;;;;;;;1.42;1.25;;;;;;;19.62;34.06;103659.13;5057919;28;20079;-68
2023/01/23 01:52:07;;;;;;;2.10;1.40;;;;;;;19.54;34.19;103661.47;5073066;28;20025;-68
2023/01/23 01:54:48;;;;;;;2.13;1.67;;;;;;;19.59;34.16;103665.50;5021290;28;20152;-68
2023/01/23 01:57:22;;;;;;;0.90;0.85;;;;;;;19.66;34.12;103678.25;5056735;28;20123;-68
2023/01/23 01:59:58;;;;;;;1.33;1.10;;;;;;;19.65;34.20;103680.06;5070434;28;20067;-68
2023/01/23 02:02:48;;;;;;;1.83;1.40;;;;;;;19.60;33.98;103687.47;5054474;28;20382;-68
2023/01/23 02:05:26;;;;;;;1.98;1.17;;;;;;;19.58;34.21;103692.03;5059080;28;20048;-68
2023/01/23 02:08:00;;;;;;;1.77;0.90;;;;;;;19.51;34.28;103685.44;5052730;28;20036;-68
2023/01/23 02:10:26;;;;;;;1.50;1.23;;;;;;;19.55;34.24;103689.59;5050319;28;20033;-68
2023/01/23 02:12:52;;;;;;;1.20;1.10;;;;;;;19.64;33.99;103691.59;5059743;28;20109;-68
2023/01/23 02:15:20;;;;;;;1.77;1.27;;;;;;;19.54;34.18;103687.91;5060160;28;20043;-68
2023/01/23 02:17:49;;;;;;;1.73;1.35;;;;;;;19.55;34.21;103681.66;5056920;28;20029;-68
2023/01/23 02:20:21;;;;;;;0.93;0.90;;;;;;;19.58;34.21;103684.09;5053822;28;20059;-68
2023/01/23 02:23:05;;;;;;;1.30;1.17;;;;;;;19.57;34.09;103685.91;5056287;28;20040;-69
2023/01/23 02:25:46;;;;;;;1.05;1.00;;;;;;;19.52;34.23;103693.25;5062204;28;20040;-68
2023/01/23 02:28:15;;;;;;;1.52;1.30;;;;;;;19.57;34.08;103691.19;5061482;28;20048;-68
2023/01/23 02:30:45;;;;;;;2.22;1.38;;;;;;;19.48;34.19;103696.25;5058130;28;20043;-68
2023/01/23 02:33:31;;;;;;;;;;;;;;;19.40;34.53;103691.50;5062382;28;20465;-68
2023/01/23 02:36:01;;;;;;;1.45;1.20;;;;;;;19.50;34.13;103699.63;5064721;28;19931;-68
2023/01/23 02:38:34;;;;;;;1.23;1.10;;;;;;;19.35;34.42;103690.97;5060910;28;20029;-67
2023/01/23 02:41:02;;;;;;;1.30;1.20;;;;;;;19.46;34.23;103690.22;5060629;28;20040;-68
2023/01/23 02:43:34;;;;;;;1.63;1.10;;;;;;;19.47;34.18;103694.56;5061060;28;20040;-68
2023/01/23 02:46:02;;;;;;;1.63;1.38;;;;;;;19.52;34.19;103693.25;5060339;28;20028;-69
2023/01/23 02:48:28;;;;;;;1.27;1.17;;;;;;;19.47;34.21;103708.59;5069957;28;20446;-68
2023/01/23 02:50:53;;;;;;;1.67;1.17;;;;;;;19.42;34.40;103715.19;5062241;28;20095;-68
2023/01/23 02:53:19;;;;;;;1.27;1.17;;;;;;;19.43;34.35;103715.06;5062401;28;20036;-68
2023/01/23 02:55:44;;;;;;;1.15;1.00;;;;;;;19.39;34.34;103718.88;5071442;28;20055;-68
2023/01/23 03:00:55;;;;;;;1.77;1.20;;;;;;;19.34;34.52;103723.63;5078779;28;20040;-67
2023/01/23 03:03:21;;;;;;;1.60;1.50;;;;;;;19.43;34.22;103730.94;5062187;28;20114;-68
2023/01/23 03:05:47;;;;;;;2.42;1.40;;;;;;;19.41;34.18;103730.19;5055342;28;20063;-68
2023/01/23 03:08:13;;;;;;;2.72;1.33;;;;;;;19.31;34.53;103735.25;5069887;28;20521;-68
2023/01/23 03:10:38;;;;;;;2.13;1.13;;;;;;;19.24;34.60;103719.94;5065296;28;21476;-68
2023/01/23 03:13:06;;;;;;;1.27;1.17;;;;;;;19.31;34.54;103729.13;5060460;28;20044;-68
2023/01/23 03:15:34;;;;;;;1.73;0.93;;;;;;;19.25;34.65;103726.91;5062566;28;20040;-68
2023/01/23 03:18:01;;;;;;;1.00;0.90;;;;;;;19.38;34.35;103737.47;5052456;28;20043;-67
2023/01/23 03:20:27;;;;;;;2.05;1.35;;;;;;;19.39;34.30;103728.56;5059148;28;20048;-68
2023/01/23 03:22:53;;;;;;;1.88;1.20;;;;;;;19.33;34.44;103730.72;5058056;28;20057;-68
2023/01/23 03:25:19;;;;;;;1.67;1.25;;;;;;;19.32;34.48;103718.44;5058270;28;20033;-68
2023/01/23 03:27:46;;;;;;;1.45;1.35;;;;;;;19.30;34.38;103728.28;5062207;28;20051;-67
2023/01/23 03:30:15;;;;;;;0.90;0.88;;;;;;;19.31;34.58;103729.97;5055757;28;20557;-68
2023/01/23 03:32:43;;;;;;;1.55;1.40;;;;;;;19.35;34.52;103729.75;5056712;28;20105;-68
2023/01/23 03:35:12;;;;;;;2.13;1.23;;;;;;;19.21;34.69;103731.56;5056531;28;20119;-68
2023/01/23 03:37:39;;;;;;;1.73;1.20;;;;;;;19.21;34.67;103733.34;5062933;28;20040;-68
2023/01/23 03:42:52;;;;;;;1.40;1.02;;;;;;;19.28;34.63;103730.19;5070743;28;20847;-68
2023/01/23 03:45:23;;;;;;;1.30;1.20;;;;;;;19.27;34.53;103725.84;5051364;28;20358;-68
2023/01/23 03:47:50;;;;;;;1.35;1.20;;;;;;;19.25;34.53;103732.19;5061607;28;20036;-68
2023/01/23 03:50:15;;;;;;;0.80;0.80;;;;;;;19.23;34.60;103734.94;5071433;28;20370;-68
2023/01/23 03:52:41;;;;;;;2.72;1.33;;;;;;;19.21;34.72;103725.41;5045252;28;20627;-68
2023/01/23 03:55:07;;;;;;;1.63;0.90;;;;;;;19.21;34.57;103725.41;5058327;28;20083;-68
2023/01/23 03:57:34;;;;;;;1.88;1.10;;;;;;;19.21;34.70;103726.28;5065342;28;20040;-68
2023/01/23 04:00:09;;;;;;;1.30;0.85;;;;;;;19.22;34.61;103733.25;5077886;28;20045;-69
2023/01/23 04:02:44;;;;;;;0.90;0.90;;;;;;;19.22;34.71;103743.00;5060466;28;20060;-68
2023/01/23 04:05:12;;;;;;;1.08;0.98;;;;;;;19.21;34.69;103739.50;5053341;28;20051;-68
2023/01/23 04:07:38;;;;;;;2.63;1.35;;;;;;;19.20;34.68;103737.78;5063061;28;20040;-68
2023/01/23 04:10:04;;;;;;;1.40;1.08;;;;;;;19.10;34.75;103739.38;5057082;28;20143;-68
2023/01/23 04:12:29;;;;;;;1.15;1.10;;;;;;;19.16;34.78;103738.94;5039329;28;20374;-68
2023/01/23 04:14:56;;;;;;;1.48;0.98;;;;;;;19.32;34.59;103744.03;5057964;28;20037;-68
2023/01/23 04:17:21;;;;;;;1.55;1.33;;;;;;;19.18;34.72;103744.97;5062447;28;20036;-68
2023/01/23 04:19:47;;;;;;;1.98;1.20;;;;;;;19.09;34.84;103747.41;5055902;28;20151;-68
2023/01/23 04:22:13;;;;;;;1.65;1.20;;;;;;;19.17;34.69;103748.56;5054137;28;20037;-67
2023/01/23 04:24:44;;;;;;;1.33;1.23;;;;;;;19.11;34.84;103741.06;5059015;28;20821;-67
2023/01/23 04:27:10;;;;;;;1.10;1.00;;;;;;;19.25;34.56;103745.41;5057989;28;20040;-68
2023/01/23 04:29:36;;;;;;;0.77;0.77;;;;;;;19.23;34.55;103742.88;5059197;28;20037;-67
2023/01/23 04:32:03;;;;;;;0.93;0.82;;;;;;;19.18;34.61;103738.84;5073570;28;20127;-67
2023/01/23 04:34:31;;;;;;;1.90;1.40;;;;;;;19.10;34.86;103746.44;5061485;28;20040;-67
2023/01/23 04:36:57;;;;;;;2.17;1.20;;;;;;;19.07;34.95;103746.66;5050848;28;20339;-68
2023/01/23 04:39:23;;;;;;;1.08;0.88;;;;;;;19.15;34.82;103747.81;5059328;28;20040;-67
2023/01/23 04:41:49;;;;;;;1.13;1.05;;;;;;;19.17;34.84;103745.06;5056743;28;20033;-68
2023/01/23 04:44:46;;;;;;;1.95;1.50;;;;;;;19.11;34.86;103756.91;5043743;28;20044;-67
2023/01/23 04:47:18;;;;;;;1.27;1.17;;;;;;;19.16;34.74;103752.16;5064637;28;20040;-68
2023/01/23 04:49:43;;;;;;;1.60;1.35;;;;;;;19.12;34.87;103758.59;5060502;28;20588;-67
2023/01/23 04:52:09;;;;;;;1.20;1.10;;;;;;;19.08;34.87;103758.91;5061094;28;20386;-68
2023/01/23 04:54:38;;;;;;;1.17;1.07;;;;;;;19.10;34.90;103763.16;5072946;28;20107;-68
2023/01/23 04:57:04;;;;;;;1.08;1.00;;;;;;;19.07;34.97;103754.59;5055428;28;20046;-68
2023/01/23 04:59:30;;;;;;;1.55;1.30;;;;;;;19.13;34.94;103755.00;5070048;28;20036;-68
2023/01/23 05:01:56;;;;;;;1.70;1.00;;;;;;;19.02;35.12;103758.38;5073215;28;20068;-67
2023/01/23 05:04:23;;;;;;;1.15;1.00;;;;;;;19.10;34.84;103765.78;5053578;28;20213;-68
2023/01/23 05:06:49;;;;;;;1.48;1.02;;;;;;;19.18;34.65;103765.25;5058338;28;20402;-67
2023/01/23 05:09:15;;;;;;;1.33;1.23;;;;;;;19.11;34.85;103778.03;5060467;28;20041;-68
2023/01/23 05:11:48;;;;;;;2.28;0.80;;;;;;;19.00;35.06;103785.84;5035415;28;20107;-67
2023/01/23 05:14:13;;;;;;;1.02;0.95;;;;;;;19.12;35.07;103774.44;5057842;28;20036;-68
2023/01/23 05:16:40;;;;;;;1.25;1.13;;;;;;;19.10;34.95;103781.63;5055930;28;20048;-68
2023/01/23 05:19:27;;;;;;;1.00;0.90;;;;;;;19.14;34.68;103777.00;5050707;28;20106;-68
2023/01/23 05:21:54;;;;;;;2.08;0.95;;;;;;;19.08;35.00;103786.19;5071973;28;20036;-68
2023/01/23 05:24:20;;;;;;;1.80;1.08;;;;;;;19.06;34.92;103788.09;5057052;28;20118;-67
2023/01/23 05:26:47;;;;;;;1.40;1.30;;;;;;;19.02;34.97;103789.22;5054053;28;20052;-68
2023/01/23 05:29:13;;;;;;;2.22;1.17;;;;;;;18.98;35.13;103790.38;5058109;28;20494;-68
2023/01/23 05:31:47;;;;;;;2.28;1.10;;;;;;;19.05;34.97;103786.41;5055130;28;20039;-67
2023/01/23 05:34:38;;;;;;;1.67;1.25;;;;;;;19.00;35.12;103777.91;5029530;28;20049;-67
2023/01/23 05:37:15;;;;;;;1.08;0.90;;;;;;;18.98;34.98;103775.38;5052834;28;20115;-68
2023/01/23 05:39:44;;;;;;;1.00;1.00;;;;;;;18.93;35.04;103771.34;5038874;28;20069;-67
2023/01/23 05:42:10;;;;;;;1.70;1.38;;;;;;;19.10;35.01;103776.34;5054341;28;20040;-68
2023/01/23 05:44:58;;;;;;;1.20;1.00;;;;;;;19.00;35.09;103776.13;5049096;28;21911;-68
2023/01/23 05:47:28;;;;;;;2.28;1.15;;;;;;;19.05;35.05;103777.63;5077358;28;20036;-67
2023/01/23 05:49:55;;;;;;;1.00;1.00;;;;;;;19.13;34.75;103777.94;5055990;28;20040;-68
2023/01/23 05:52:24;;;;;;;0.77;0.68;;;;;;;18.97;34.99;103771.03;5054270;28;20466;-67
2023/01/23 05:54:50;;;;;;;1.65;1.02;;;;;;;19.05;35.02;103765.25;5055575;28;20055;-67
2023/01/23 05:57:16;;;;;;;1.33;0.93;;;;;;;19.07;34.98;103759.88;5044100;28;20368;-67
2023/01/23 05:59:50;;;;;;;1.17;1.00;;;;;;;19.13;34.75;103762.94;5057824;28;20045;-67
2023/01/23 06:02:36;;;;;;;0.70;0.70;;;;;;;19.09;34.92;103769.38;5056096;28;20076;-67
2023/01/23 06:05:28;;;;;;;1.23;1.00;;;;;;;19.10;34.75;103775.50;5046260;28;20057;-68
2023/01/23 06:08:01;;;;;;;1.02;0.93;;;;;;;19.13;35.17;103772.66;5053122;28;20040;-67
2023/01/23 06:10:27;;;;;;;0.90;0.90;;;;;;;19.14;34.70;103783.13;5060427;28;20024;-67
2023/01/23 06:12:54;;;;;;;1.00;0.90;;;;;;;19.13;34.81;103786.72;5053646;28;20039;-68
2023/01/23 06:15:21;;;;;;;1.30;1.08;;;;;;;19.04;34.95;103776.78;5053603;28;20063;-68
2023/01/23 06:17:46;;;;;;;0.85;0.85;;;;;;;19.12;34.85;103778.88;5053111;28;20051;-67
2023/01/23 06:20:13;;;;;;;1.25;0.88;;;;;;;19.15;34.79;103789.25;5050179;28;20048;-67
2023/01/23 06:22:41;;;;;;;0.90;0.88;;;;;;;19.16;34.73;103788.28;5055038;28;20059;-67
2023/01/23 06:25:10;;;;;;;1.30;1.20;;;;;;;19.20;34.59;103792.41;5053522;28;20055;-68
2023/01/23 06:27:36;;;;;;;1.15;1.05;;;;;;;19.14;34.79;103798.13;5060107;28;20046;-67
2023/01/23 06:30:05;;;;;;;1.20;1.10;;;;;;;19.14;34.83;103798.13;5058087;28;20582;-68
2023/01/23 06:32:35;;;;;;;1.92;1.17;;;;;;;19.12;34.85;103792.94;5059015;28;20041;-68
2023/01/23 06:35:02;;;;;;;2.40;1.20;;;;;;;19.09;34.94;103801.06;5055995;28;20044;-68
2023/01/23 06:37:33;;;;;;;0.90;0.90;;;;;;;19.16;34.96;103802.34;5057311;28;20085;-68
2023/01/23 06:39:58;;;;;;;0.77;0.77;;;;;;;19.18;34.86;103799.59;5053943;28;20906;-67
2023/01/23 06:42:24;;;;;;;0.70;0.70;;;;;;;20.37;33.10;103800.03;5058509;28;20478;-67
2023/01/23 06:44:51;;;;;;;0.65;0.65;;;;;;;21.52;31.56;103802.03;5058324;28;20409;-67
2023/01/23 06:47:19;;;;;;;1.10;1.00;;;;;;;22.26;30.50;103808.50;5058919;28;20469;-68
2023/01/23 06:49:51;;;;;;;1.00;0.73;;;;;;;22.63;29.73;103800.22;5070876;28;20056;-68
2023/01/23 06:52:16;;;;;;;1.48;0.90;;;;;;;22.59;29.93;103799.59;5058085;28;20033;-68
2023/01/23 06:54:45;;;;;;;1.13;0.95;;;;;;;22.53;30.03;103800.97;5057904;28;20029;-64
2023/01/23 06:57:11;;;;;;;0.98;0.60;;;;;;;22.34;30.20;103806.09;5056446;28;20047;-64
2023/01/23 06:59:37;;;;;;;0.90;0.90;;;;;;;22.16;30.69;103804.94;5059767;28;20064;-64
2023/01/23 07:02:09;;;;;;;0.98;0.75;;;;;;;22.03;31.02;103803.22;5033707;28;20110;-64
2023/01/23 07:04:46;;;;;;;0.65;0.65;;;;;;;21.90;31.24;103813.16;5054587;28;20098;-64
2023/01/23 07:07:11;;;;;;;0.60;0.60;;;;;;;21.81;31.27;103811.22;5056852;28;20490;-64
2023/01/23 07:09:38;;;;;;;0.60;0.60;;;;;;;21.61;31.44;103819.88;5047821;28;20102;-64
2023/01/23 07:12:12;;;;;;;0.98;0.80;;;;;;;21.55;31.85;103818.56;5077740;28;20060;-64
2023/01/23 07:14:38;;;;;;;0.90;0.90;;;;;;;21.46;32.00;103821.06;5077334;28;20379;-64
2023/01/23 07:17:05;;;;;;;0.85;0.77;;;;;;;21.35;32.18;103820.06;5060864;28;20040;-64
2023/01/23 07:19:31;;;;;;;1.02;0.85;;;;;;;21.32;32.03;103827.44;5076575;28;20048;-64
2023/01/23 07:21:59;;;;;;;0.77;0.77;;;;;;;21.21;32.18;103820.28;5059452;28;20031;-64
2023/01/23 07:24:27;;;;;;;1.00;0.80;;;;;;;21.10;32.50;103818.44;5057023;28;20090;-64
2023/01/23 07:26:52;;;;;;;0.82;0.82;;;;;;;20.98;32.76;103824.66;5058513;28;20121;-64
2023/01/23 07:29:18;;;;;;;1.05;0.95;;;;;;;20.95;32.79;103831.97;5059267;28;20040;-64
2023/01/23 07:31:43;;;;;;;0.85;0.70;;;;;;;20.91;32.77;103826.06;5058499;28;20067;-64
2023/01/23 07:34:09;;;;;;;0.75;0.75;;;;;;;20.78;33.11;103831.44;5062610;28;20043;-64
2023/01/23 07:36:34;;;;;;;0.88;0.70;;;;;;;20.72;33.19;103828.41;5062065;28;20044;-64
2023/01/23 07:39:00;;;;;;;1.05;0.85;;;;;;;20.65;33.29;103832.47;5056742;28;20040;-64
2023/01/23 07:41:25;;;;;;;0.95;0.80;;;;;;;20.61;33.40;103842.41;5058227;28;20441;-64
2023/01/23 07:43:51;;;;;;;0.80;0.80;;;;;;;20.70;33.21;103843.56;5062096;28;20048;-64
2023/01/23 07:46:16;;;;;;;1.35;0.95;;;;;;;20.91;32.98;103830.53;5063009;28;20561;-64
2023/01/23 07:48:42;;;;;;;1.10;0.90;;;;;;;21.03;32.81;103838.41;5059858;28;20036;-64
2023/01/23 07:51:07;;;;;;;1.05;1.00;;;;;;;21.18;32.31;103846.97;5060504;28;20045;-64
2023/01/23 07:53:33;;;;;;;0.98;0.80;;;;;;;21.26;32.15;103843.81;5058675;28;20036;-64
2023/01/23 07:55:58;;;;;;;1.80;0.85;;;;;;;21.29;31.98;103847.06;5061955;28;20028;-64
2023/01/23 07:58:24;;;;;;;0.77;0.75;;;;;;;21.26;32.40;103847.31;5063007;28;20071;-64
2023/01/23 08:00:49;;;;;;;1.08;0.90;;;;;;;21.29;32.34;103851.50;5060949;28;20049;-64
2023/01/23 08:03:15;;;;;;;1.77;1.00;;;;;;;21.22;32.32;103844.97;5060767;28;20131;-64
2023/01/23 08:05:41;;;;;;;0.55;0.52;;;;;;;21.20;32.55;103852.19;5064722;28;20067;-64
2023/01/23 08:08:07;;;;;;;0.60;0.60;;;;;;;21.15;32.55;103849.88;5062616;28;20040;-64
2023/01/23 08:10:33;;;;;;;0.55;0.50;;;;;;;21.09;32.67;103856.50;5060226;28;20044;-64
2023/01/23 08:12:59;;;;;;;1.23;0.82;;;;;;;21.00;32.67;103858.97;5056823;28;20098;-64
2023/01/23 08:15:24;;;;;;;0.82;0.70;;;;;;;20.95;32.97;103859.31;5053775;28;20037;-64
2023/01/23 08:17:50;;;;;;;0.70;0.70;;;;;;;20.84;33.15;103858.44;5057964;28;20098;-64
2023/01/23 08:20:16;;;;;;;1.05;0.90;;;;;;;20.86;33.15;103852.06;5056389;28;20046;-64
2023/01/23 08:22:41;;;;;;;0.85;0.85;;;;;;;20.61;33.25;103852.16;5056186;28;20102;-64
2023/01/23 08:25:10;;;;;;;1.23;1.08;;;;;;;20.63;33.60;103861.69;5061180;28;20050;-65
2023/01/23 08:27:36;;;;;;;1.45;0.80;;;;;;;20.46;33.74;103862.06;5058791;28;20047;-65
2023/01/23 08:30:03;;;;;;;1.20;0.90;;;;;;;20.36;33.90;103869.81;5074551;28;20048;-65
2023/01/23 08:32:29;;;;;;;0.60;0.60;;;;;;;20.25;34.16;103880.28;5055707;28;20041;-64
2023/01/23 08:34:54;;;;;;;0.88;0.82;;;;;;;20.18;34.24;103877.25;5057756;28;20079;-64
2023/01/23 08:37:20;;;;;;;0.88;0.75;;;;;;;20.18;34.35;103874.59;5060167;28;20115;-64
2023/01/23 08:39:45;;;;;;;1.80;1.08;;;;;;;20.60;33.47;103874.31;5058229;28;20044;-64
2023/01/23 08:42:11;;;;;;;0.77;0.65;;;;;;;20.91;32.96;103883.50;5060444;28;20040;-64
2023/01/23 08:44:36;;;;;;;1.27;1.00;;;;;;;21.00;32.77;103898.72;5058761;28;20056;-64
2023/01/23 08:47:02;;;;;;;0.98;0.82;;;;;;;21.07;32.73;103899.97;5055868;28;20037;-64
2023/01/23 08:49:28;;;;;;;0.52;0.52;;;;;;;20.99;32.88;103891.72;5055979;28;20510;-65
2023/01/23 08:51:55;;;;;;;0.77;0.77;;;;;;;21.01;32.74;103895.13;5072218;28;20051;-64
2023/01/23 08:54:21;;;;;;;0.98;0.90;;;;;;;20.94;32.90;103901.81;5055368;28;20039;-64
2023/01/23 08:56:46;;;;;;;1.02;0.63;;;;;;;20.83;33.22;103904.44;5060446;28;20628;-65
2023/01/23 08:59:12;;;;;;;0.47;0.47;;;;;;;20.88;33.10;103910.22;5054030;28;20700;-64
2023/01/23 09:01:37;;;;;;;0.80;0.80;;;;;;;20.75;33.07;103915.56;5058440;28;20048;-64
2023/01/23 09:04:03;;;;;;;0.70;0.70;;;;;;;20.58;33.57;103919.44;5055510;28;20045;-64
2023/01/23 09:06:28;;;;;;;0.95;0.93;;;;;;;20.60;33.58;103921.97;5061494;28;20043;-64
2023/01/23 09:08:54;;;;;;;2.20;1.13;;;;;;;20.36;33.95;103917.44;5060023;28;20040;-65
2023/01/23 09:11:21;;;;;;;0.85;0.85;;;;;;;20.39;33.94;103914.56;5059528;28;20029;-65
2023/01/23 09:13:47;;;;;;;1.48;0.93;;;;;;;20.36;34.06;103911.31;5055091;28;20055;-65
2023/01/23 09:16:13;;;;;;;1.00;0.80;;;;;;;20.39;33.80;103906.63;5057855;28;20052;-65
2023/01/23 09:18:38;;;;;;;0.88;0.70;;;;;;;20.36;33.86;103911.31;5052416;28;20029;-64
2023/01/23 09:21:10;;;;;;;1.90;0.73;;;;;;;20.35;33.86;103917.56;5054618;28;20501;-63
2023/01/23 09:23:36;;;;;;;0.60;0.60;;;;;;;20.83;33.08;103923.81;5053800;28;20036;-65
2023/01/23 09:26:07;;;;;;;1.00;1.00;;;;;;;21.29;32.18;103915.97;5055857;28;20391;-65
2023/01/23 09:28:37;;;;;;;0.70;0.55;;;;;;;21.75;31.46;103917.78;5055968;28;20086;-65
2023/01/23 09:31:06;;;;;;;1.65;0.95;;;;;;;21.76;31.63;103919.50;5054941;28;20606;-64
2023/01/23 09:33:32;;;;;;;0.93;0.80;;;;;;;21.74;31.46;103926.72;5052023;28;20740;-64
2023/01/23 09:35:58;;;;;;;0.82;0.82;;;;;;;21.66;31.39;103927.28;5057011;28;20055;-64
2023/01/23 09:38:24;;;;;;;3.03;0.93;;;;;;;21.63;31.66;103921.38;5055841;28;20040;-64
2023/01/23 09:40:52;;;;;;;1.20;0.90;;;;;;;21.53;31.87;103918.56;5056169;28;20036;-65
2023/01/23 09:43:38;;;;;;;1.30;0.65;;;;;;;21.41;32.14;103930.13;5053036;28;20029;-64
2023/01/23 09:46:15;;;;;;;1.02;0.90;;;;;;;21.42;31.94;103935.31;5056362;28;20040;-64
2023/01/23 09:48:52;;;;;;;0.68;0.60;;;;;;;21.27;32.23;103932.97;5058415;28;20491;-65
2023/01/23 09:51:36;;;;;;;0.57;0.57;;;;;;;21.27;32.17;103935.59;5053262;28;20052;-65
2023/01/23 09:54:31;;;;;;;1.00;0.65;;;;;;;21.20;32.39;103937.84;5054721;28;20055;-67
2023/01/23 09:57:01;;;;;;;1.77;1.00;;;;;;;21.11;32.50;103934.06;5049602;28;20044;-65
2023/01/23 09:59:37;;;;;;;0.70;0.70;;;;;;;20.99;32.59;103936.75;5048782;28;20028;-65
2023/01/23 10:02:20;;;;;;;0.82;0.80;;;;;;;20.91;32.79;103936.50;5051819;28;20130;-64
2023/01/23 10:04:48;;;;;;;1.00;0.88;;;;;;;20.58;33.47;103937.13;5066351;28;21898;-64
2023/01/23 10:07:28;;;;;;;0.70;0.70;;;;;;;20.61;33.41;103931.59;5052109;28;20933;-65
2023/01/23 10:10:19;;;;;;;1.00;0.95;;;;;;;20.60;33.46;103936.03;5051809;28;20101;-65
2023/01/23 10:13:17;;;;;;;0.98;0.90;;;;;;;20.66;33.13;103937.44;4996011;28;20032;-64
2023/01/23 10:16:12;;;;;;;0.80;0.80;;;;;;;20.78;32.92;103929.44;5050948;28;20140;-64
2023/01/23 10:18:53;;;;;;;2.20;1.10;;;;;;;20.86;32.79;103933.34;5026710;28;20052;-64
2023/01/23 10:21:27;;;;;;;1.15;0.90;;;;;;;20.99;32.76;103942.06;5049582;28;20044;-64
2023/01/23 10:24:30;;;;;;;1.23;0.98;;;;;;;21.34;32.05;103936.84;5050275;28;20063;-64
2023/01/23 10:27:03;;;;;;;0.95;0.88;;;;;;;21.48;31.90;103925.19;5046716;28;20048;-64
2023/01/23 10:29:35;;;;;;;1.00;0.90;;;;;;;21.55;31.56;103926.44;5017461;28;20037;-64
2023/01/23 10:32:05;;;;;;;0.85;0.70;;;;;;;21.54;31.54;103922.91;5052458;28;20042;-64
2023/01/23 10:34:39;;;;;;;1.20;1.00;;;;;;;21.64;31.69;103928.38;5054069;28;20072;-64
2023/01/23 10:37:34;;;;;;;0.77;0.65;;;;;;;21.55;31.64;103921.13;5050196;28;20036;-64
2023/01/23 10:40:03;;;;;;;1.23;0.80;;;;;;;21.53;31.87;103928.34;5050127;28;20040;-64
2023/01/23 10:42:29;;;;;;;0.88;0.88;;;;;;;21.52;31.73;103916.88;5050969;28;20032;-63
2023/01/23 10:44:55;;;;;;;1.17;0.90;;;;;;;21.53;31.91;103923.03;5026749;28;20083;-64
2023/01/23 10:47:35;;;;;;;1.15;1.00;;;;;;;21.55;31.75;103921.13;5065401;28;20029;-64
2023/01/23 10:50:02;;;;;;;0.90;0.90;;;;;;;21.58;31.50;103928.84;5069664;28;20507;-64
2023/01/23 10:52:37;;;;;;;1.20;0.88;;;;;;;21.54;31.51;103927.38;5065251;28;20064;-64
2023/01/23 10:55:05;;;;;;;1.98;1.27;;;;;;;21.53;31.62;103926.53;5060679;28;20043;-64
2023/01/23 10:57:58;;;;;;;1.33;0.90;;;;;;;21.45;31.96;103928.09;5058342;28;20040;-64
2023/01/23 11:00:36;;;;;;;1.20;0.82;;;;;;;21.41;32.19;103933.63;5040282;28;20049;-64
2023/01/23 11:03:32;;;;;;;1.20;1.10;;;;;;;21.46;31.68;103927.97;5047052;28;20625;-64
2023/01/23 11:06:07;;;;;;;0.65;0.65;;;;;;;21.43;31.69;103930.84;5051708;28;20052;-64
2023/01/23 11:08:36;;;;;;;0.85;0.85;;;;;;;21.41;31.96;103927.47;5053106;28;20040;-64
2023/01/23 11:11:13;;;;;;;1.35;0.85;;;;;;;21.41;31.96;103930.13;5057862;28;20371;-64
2023/01/23 11:13:39;;;;;;;1.48;1.10;;;;;;;21.38;31.76;103933.00;5056696;28;20035;-63
2023/01/23 11:16:05;;;;;;;1.25;1.13;;;;;;;21.35;31.95;103931.41;5057210;28;20028;-63
2023/01/23 11:18:37;;;;;;;0.88;0.80;;;;;;;21.35;31.78;103930.56;5026773;28;20060;-64
2023/01/23 11:21:03;;;;;;;1.67;1.05;;;;;;;21.30;32.03;103933.56;5057210;28;20602;-64
2023/01/23 11:23:32;;;;;;;1.02;0.95;;;;;;;21.36;31.74;103932.25;5057310;28;20032;-64
2023/01/23 11:25:58;;;;;;;0.90;0.90;;;;;;;21.31;31.81;103924.66;5057193;28;20051;-63
2023/01/23 11:28:32;;;;;;;1.02;0.93;;;;;;;21.25;32.22;103926.94;5058324;28;20041;-64
2023/01/23 11:31:21;;;;;;;1.10;1.00;;;;;;;21.28;31.89;103924.03;5057103;28;20056;-64
2023/01/23 11:33:55;;;;;;;1.15;0.93;;;;;;;21.24;31.84;103930.50;5027158;28;20068;-63
2023/01/23 11:36:47;;;;;;;0.85;0.80;;;;;;;21.22;32.18;103937.72;5055172;28;20483;-63
2023/01/23 11:39:24;;;;;;;0.85;0.85;;;;;;;21.21;31.98;103939.53;5056986;28;20041;-63
2023/01/23 11:41:50;;;;;;;1.30;1.02;;;;;;;21.17;32.01;103929.25;5059212;28;20162;-65